Time;durP1;ratioP1;P1;durP2;ratioP2;P2;SDS_P1;SDS_P2;PMS_P1;PMS_P2;Temp;Humidity;BMP_temperature;BMP_pressure;BME280_temperature;BME280_humidity;BME280_pressure;Samples;Min_cycle;Max_cycle;Signal;HPM_P1;HPM_P2
2022/11/07 00:00:14;;;;;;;45.83;30.27;;;;;;;29.49;72.88;101127.94;5001191;28;65724;-38
2022/11/07 00:02:44;;;;;;;41.42;28.65;;;;;;;29.35;73.80;101097.34;4999111;28;69631;-38
2022/11/07 00:05:14;;;;;;;37.03;29.35;;;;;;;29.23;74.30;101074.69;5000224;28;66274;-40
2022/11/07 00:07:44;;;;;;;42.45;28.85;;;;;;;29.49;74.08;101116.31;4997254;28;70598;-39
2022/11/07 00:10:14;;;;;;;37.42;28.85;;;;;;;29.57;74.46;101129.63;4992167;28;65875;-38
2022/11/07 00:12:44;;;;;;;38.05;28.17;;;;;;;29.60;74.50;101134.63;4999866;28;69438;-39
2022/11/07 00:15:15;;;;;;;43.83;27.75;;;;;;;29.45;74.46;101110.50;5000271;28;66384;-39
2022/11/07 00:17:44;;;;;;;64.05;41.33;;;;;;;29.61;74.55;101137.13;4999249;28;70112;-39
2022/11/07 00:20:14;;;;;;;87.45;56.13;;;;;;;29.60;74.55;101138.16;4993586;28;65194;-39
2022/11/07 00:22:44;;;;;;;83.85;57.08;;;;;;;29.55;75.15;101126.28;4999120;28;69964;-40
2022/11/07 00:25:15;;;;;;;73.97;48.38;;;;;;;29.63;74.91;101145.06;4999049;28;66735;-40
2022/11/07 00:27:45;;;;;;;66.88;46.08;;;;;;;29.66;74.62;101144.63;4995754;28;69440;-39
2022/11/07 00:30:15;;;;;;;62.58;41.03;;;;;;;29.67;75.31;101143.63;4995454;28;65574;-39
2022/11/07 00:33:09;;;;;;;62.40;37.45;;;;;;;29.68;75.18;101147.97;4999130;28;70109;-41
2022/11/07 00:35:58;;;;;;;54.17;35.67;;;;;;;29.73;75.74;101158.19;4998709;28;66417;-41
2022/11/07 00:38:29;;;;;;;30.17;26.58;;;;;;;29.74;72.17;101157.97;4996038;28;69831;-39
2022/11/07 00:41:01;;;;;;;29.90;25.77;;;;;;;29.78;71.39;101175.44;4998016;28;65896;-38
2022/11/07 00:43:49;;;;;;;31.30;25.27;;;;;;;29.64;71.28;101157.53;4997405;28;69636;-39
2022/11/07 00:46:21;;;;;;;31.73;23.52;;;;;;;29.82;70.22;101181.28;4995547;28;43423;-38
2022/11/07 00:48:51;;;;;;;30.83;24.00;;;;;;;29.86;69.97;101181.69;4997484;28;70620;-38
2022/11/07 00:51:24;;;;;;;28.70;21.60;;;;;;;29.88;69.78;101179.63;4998714;28;64918;-38
2022/11/07 00:53:55;;;;;;;25.17;21.92;;;;;;;29.79;69.60;101171.69;4996246;28;70394;-38
2022/11/07 00:56:25;;;;;;;23.38;20.60;;;;;;;29.92;69.75;101188.97;4999717;28;66376;-37
2022/11/07 00:58:59;;;;;;;24.02;20.63;;;;;;;29.73;69.52;101156.31;5000951;28;69729;-38
2022/11/07 01:01:33;;;;;;;21.70;19.17;;;;;;;29.89;68.81;101186.69;4992890;28;66318;-39
2022/11/07 01:06:54;;;;;;;21.20;18.92;;;;;;;29.98;68.88;101201.69;4997454;28;65681;-39
2022/11/07 01:09:24;;;;;;;19.67;17.67;;;;;;;30.01;68.67;101212.09;4994576;28;70362;-39
2022/11/07 01:11:55;;;;;;;20.65;18.50;;;;;;;30.01;68.23;101203.97;4981158;28;65561;-39
2022/11/07 01:14:25;;;;;;;21.00;18.60;;;;;;;30.04;68.70;101208.97;4999618;28;69873;-38
2022/11/07 01:16:55;;;;;;;20.25;18.13;;;;;;;29.69;67.98;101149.63;4997189;28;66325;-39
2022/11/07 01:19:25;;;;;;;20.63;18.58;;;;;;;30.06;68.27;101204.16;5000298;28;69576;-39
2022/11/07 01:21:55;;;;;;;21.85;18.25;;;;;;;30.05;67.85;101202.50;4999677;28;66401;-38
2022/11/07 01:24:25;;;;;;;19.52;17.67;;;;;;;30.05;67.71;101206.03;4996151;28;70128;-38
2022/11/07 01:26:56;;;;;;;18.88;16.92;;;;;;;30.00;67.62;101199.59;5008405;28;66629;-38
2022/11/07 01:29:26;;;;;;;17.73;16.00;;;;;;;30.11;67.63;101212.50;4997376;28;69504;-39
2022/11/07 01:31:56;;;;;;;17.38;15.52;;;;;;;30.15;67.79;101227.28;4998526;28;65717;-38
2022/11/07 01:34:25;;;;;;;18.25;16.48;;;;;;;30.16;67.26;101228.13;4994907;28;69561;-38
2022/11/07 01:36:55;;;;;;;19.13;15.25;;;;;;;30.18;67.36;101224.16;4999832;28;66324;-38
2022/11/07 01:39:26;;;;;;;16.25;14.65;;;;;;;30.19;67.15;101230.41;4993147;28;70653;-38
2022/11/07 01:41:56;;;;;;;16.33;14.82;;;;;;;30.14;67.20;101220.19;4989541;28;66721;-39
2022/11/07 01:44:25;;;;;;;15.57;14.23;;;;;;;30.21;67.20;101226.47;4993691;28;68716;-38
2022/11/07 01:46:59;;;;;;;16.80;15.32;;;;;;;30.24;67.40;101239.59;4986765;28;67143;-40
2022/11/07 01:49:33;;;;;;;14.98;13.65;;;;;;;30.12;67.06;101203.38;4996064;28;70383;-41
2022/11/07 01:52:41;;;;;;;15.57;13.95;;;;;;;30.25;67.42;101225.03;5008279;28;66411;-38
2022/11/07 01:55:31;;;;;;;15.13;13.20;;;;;;;30.14;66.99;101208.53;4985536;28;69793;-38
2022/11/07 01:58:04;;;;;;;15.05;13.85;;;;;;;30.27;67.13;101233.78;4999728;28;66616;-40
2022/11/07 02:00:36;;;;;;;14.02;13.02;;;;;;;30.01;66.67;101175.06;5000337;28;70484;-37
2022/11/07 02:03:13;;;;;;;14.43;13.40;;;;;;;30.31;66.88;101220.66;4999722;28;65303;-37
2022/11/07 02:06:06;;;;;;;15.48;14.18;;;;;;;30.22;66.82;101225.44;5002196;28;70645;-39
2022/11/07 02:08:39;;;;;;;14.27;13.13;;;;;;;30.35;66.91;101229.22;5001454;28;65563;-39
2022/11/07 02:11:11;;;;;;;14.10;12.98;;;;;;;30.34;66.92;101216.69;4999108;28;69789;-40
2022/11/07 02:13:43;;;;;;;12.93;11.88;;;;;;;30.00;66.51;101157.13;5000710;28;66425;-38
2022/11/07 02:16:13;;;;;;;13.43;12.43;;;;;;;30.37;66.71;101210.84;4998527;28;69201;-39
2022/11/07 02:18:44;;;;;;;12.30;11.40;;;;;;;30.39;66.29;101198.78;5001268;28;64177;-38
2022/11/07 02:21:25;;;;;;;13.75;12.55;;;;;;;30.40;66.59;101205.06;5001948;28;70578;-39
2022/11/07 02:24:07;;;;;;;13.20;12.18;;;;;;;30.41;66.63;101201.28;5000647;28;66169;-38
2022/11/07 02:26:41;;;;;;;12.05;11.25;;;;;;;30.40;66.14;101191.53;5001969;28;70434;-38
2022/11/07 02:32:38;;;;;;;13.25;12.25;;;;;;;30.42;66.05;101186.72;4992332;28;70261;-38
2022/11/07 02:35:43;;;;;;;11.85;10.95;;;;;;;30.42;66.14;101202.94;4992895;28;66903;-38
2022/11/07 02:38:34;;;;;;;12.27;11.18;;;;;;;30.43;65.72;101193.81;4997670;28;69972;-40
2022/11/07 02:41:35;;;;;;;12.27;11.48;;;;;;;30.42;65.77;101192.13;5017785;28;66457;-39
2022/11/07 02:44:32;;;;;;;12.10;11.20;;;;;;;30.54;65.49;101193.16;4982107;28;68842;-37
2022/11/07 02:47:02;;;;;;;12.50;11.35;;;;;;;30.43;65.81;101177.56;4999705;28;65146;-39
2022/11/07 02:49:39;;;;;;;11.77;10.73;;;;;;;30.49;65.63;101182.13;4996963;28;69344;-39
2022/11/07 02:52:13;;;;;;;11.65;10.82;;;;;;;30.62;65.18;101209.19;4994607;28;65866;-39
2022/11/07 02:54:46;;;;;;;11.38;10.43;;;;;;;30.62;65.29;101198.38;4993982;28;70612;-39
2022/11/07 02:57:16;;;;;;;12.05;11.00;;;;;;;30.54;65.04;101179.63;4986773;28;66632;-39
2022/11/07 02:59:47;;;;;;;11.05;10.35;;;;;;;30.67;65.29;101195.84;4994110;28;69528;-38
2022/11/07 03:02:20;;;;;;;11.68;10.65;;;;;;;30.72;64.74;101197.91;4995084;28;65635;-39
2022/11/07 03:04:53;;;;;;;11.40;10.70;;;;;;;30.67;64.78;101185.03;4995468;28;69759;-39
2022/11/07 03:07:28;;;;;;;11.25;10.43;;;;;;;30.65;64.95;101181.69;4996996;28;65349;-42
2022/11/07 03:09:58;;;;;;;11.25;10.10;;;;;;;30.77;64.73;101183.75;4996439;28;69252;-39
2022/11/07 03:12:28;;;;;;;11.35;10.43;;;;;;;30.79;64.37;101192.50;4998206;28;66293;-39
2022/11/07 03:15:01;;;;;;;11.15;10.40;;;;;;;30.81;64.56;101180.41;4991398;28;69425;-38
2022/11/07 03:17:33;;;;;;;10.90;10.20;;;;;;;30.85;64.79;101175.41;4995203;28;66813;-38
2022/11/07 03:20:07;;;;;;;11.05;10.27;;;;;;;30.84;64.42;101171.88;4999613;28;68986;-39
2022/11/07 03:22:40;;;;;;;11.40;10.52;;;;;;;30.86;64.15;101171.66;4997264;28;66167;-39
2022/11/07 03:25:10;;;;;;;11.13;10.20;;;;;;;30.76;64.17;101146.84;5000161;28;70091;-37
2022/11/07 03:27:48;;;;;;;11.88;10.90;;;;;;;30.91;63.87;101163.72;5001667;28;66005;-38
2022/11/07 03:30:18;;;;;;;11.93;10.70;;;;;;;30.92;64.47;101152.69;4989523;28;70711;-39
2022/11/07 03:33:00;;;;;;;11.68;10.88;;;;;;;30.94;64.08;101147.03;5001283;28;66777;-39
2022/11/07 03:35:36;;;;;;;11.82;10.82;;;;;;;30.97;64.20;101153.91;4998197;28;69866;-38
2022/11/07 03:38:10;;;;;;;11.85;11.05;;;;;;;30.96;64.25;101139.53;4996803;28;65723;-39
2022/11/07 03:40:40;;;;;;;10.38;9.68;;;;;;;30.99;63.71;101139.09;5002020;28;70357;-38
2022/11/07 03:43:15;;;;;;;11.93;10.60;;;;;;;31.01;63.67;101137.03;5010602;28;64914;-38
2022/11/07 03:45:45;;;;;;;11.07;10.32;;;;;;;31.04;64.13;101127.63;4994775;28;69775;-39
2022/11/07 03:48:15;;;;;;;11.07;10.40;;;;;;;31.06;63.94;101129.06;5001145;28;66074;-39
2022/11/07 03:50:46;;;;;;;11.90;10.88;;;;;;;31.08;63.91;101118.84;5001176;28;70228;-41
2022/11/07 03:53:17;;;;;;;11.50;10.70;;;;;;;30.84;63.81;101077.09;5016534;28;66774;-38
2022/11/07 03:55:55;;;;;;;11.65;10.75;;;;;;;31.12;63.34;101111.97;4995074;28;70615;-39
2022/11/07 03:58:26;;;;;;;;;;;;;;;30.82;64.46;101105.44;5008113;28;65888;-40
2022/11/07 04:00:56;;;;;;;12.43;11.52;;;;;;;31.07;63.55;101098.22;5001746;28;69970;-39
2022/11/07 04:03:28;;;;;;;11.70;10.93;;;;;;;31.13;63.71;101097.34;4967351;28;66477;-38
2022/11/07 04:05:59;;;;;;;12.27;10.83;;;;;;;31.18;63.41;101094.00;5000636;28;68936;-40
2022/11/07 04:08:30;;;;;;;12.35;11.40;;;;;;;31.20;63.12;101085.63;5000652;28;66562;-42
2022/11/07 04:11:02;;;;;;;11.65;10.50;;;;;;;31.22;63.27;101095.22;4999129;28;69897;-39
2022/11/07 04:19:13;;;;;;;10.98;10.23;;;;;;;30.75;63.14;100990.84;4997686;28;66174;-40
2022/11/07 04:21:45;;;;;;;12.82;11.63;;;;;;;31.28;63.29;101069.13;4999770;28;69824;-42
2022/11/07 04:24:16;;;;;;;12.57;11.35;;;;;;;31.28;63.13;101061.00;4982911;28;64219;-38
2022/11/07 04:29:36;;;;;;;12.40;11.60;;;;;;;31.22;63.18;101051.03;4998041;28;65990;-39
2022/11/07 04:32:07;;;;;;;12.32;11.38;;;;;;;31.27;63.32;101052.03;4991898;28;69600;-40
2022/11/07 04:34:38;;;;;;;12.13;11.23;;;;;;;31.27;63.78;101053.91;4993530;28;66343;-39
2022/11/07 04:37:10;;;;;;;11.60;10.63;;;;;;;31.28;63.22;101052.84;4997894;28;70360;-41
2022/11/07 04:39:41;;;;;;;13.57;12.43;;;;;;;31.06;63.34;101004.44;4996042;28;66635;-41
2022/11/07 04:42:13;;;;;;;12.82;11.80;;;;;;;31.30;62.99;101037.22;4999765;28;68898;-41
2022/11/07 04:44:44;;;;;;;12.35;11.50;;;;;;;31.31;63.03;101039.69;5001264;28;66558;-40
2022/11/07 04:47:15;;;;;;;11.88;10.88;;;;;;;31.19;63.07;101008.09;5000559;28;70059;-39
2022/11/07 04:49:46;;;;;;;13.00;11.90;;;;;;;31.26;62.97;101012.44;4997227;28;65447;-39
2022/11/07 04:52:17;;;;;;;13.43;12.30;;;;;;;31.32;62.80;101016.97;5000138;28;70141;-40
2022/11/07 04:54:49;;;;;;;12.90;12.00;;;;;;;31.37;63.04;101019.03;4998109;28;65619;-39
2022/11/07 04:57:20;;;;;;;12.45;11.60;;;;;;;31.38;62.90;101010.69;4996752;28;69962;-39
2022/11/07 04:59:51;;;;;;;12.63;11.57;;;;;;;31.41;62.86;101012.13;4991941;28;66482;-40
2022/11/07 05:02:25;;;;;;;13.52;12.32;;;;;;;31.33;62.37;100994.22;4997151;28;70399;-41
2022/11/07 05:04:56;;;;;;;12.70;11.63;;;;;;;31.43;62.77;101004.63;4998228;28;66796;-41
2022/11/07 05:07:27;;;;;;;13.38;12.30;;;;;;;31.42;62.80;101002.13;5014772;28;70089;-39
2022/11/07 05:09:58;;;;;;;12.73;11.48;;;;;;;31.36;62.69;100991.09;4997441;28;65573;-41
2022/11/07 05:12:30;;;;;;;13.80;12.63;;;;;;;31.40;62.56;100986.09;4999832;28;70247;-40
2022/11/07 05:15:01;;;;;;;12.73;11.63;;;;;;;31.39;62.70;100987.13;4999391;28;67780;-41
2022/11/07 05:17:32;;;;;;;12.85;11.85;;;;;;;31.11;62.30;100923.31;5012505;28;69527;-40
2022/11/07 05:20:03;;;;;;;13.23;12.10;;;;;;;31.47;62.46;100983.31;4998350;28;65539;-40
2022/11/07 05:25:24;;;;;;;13.85;12.60;;;;;;;31.46;62.56;100966.22;4995414;28;66369;-40
2022/11/07 05:27:56;;;;;;;12.77;11.90;;;;;;;31.46;62.26;100960.81;4989977;28;70524;-41
2022/11/07 05:30:27;;;;;;;12.80;11.87;;;;;;;31.43;62.63;100958.53;4999141;28;66347;-41
2022/11/07 05:32:58;;;;;;;12.57;11.63;;;;;;;31.49;62.60;100960.34;4998548;28;70559;-41
2022/11/07 05:35:29;;;;;;;13.23;12.10;;;;;;;31.40;62.68;100940.00;4999935;28;66464;-40
2022/11/07 05:38:01;;;;;;;13.57;12.13;;;;;;;31.51;62.06;100951.97;5004700;28;69654;-40
2022/11/07 05:40:34;;;;;;;13.27;12.23;;;;;;;31.51;62.10;100952.84;4971057;28;64999;-39
2022/11/07 05:43:07;;;;;;;14.35;13.05;;;;;;;30.71;62.12;100804.44;4995958;28;69179;-40
2022/11/07 05:45:40;;;;;;;12.73;11.65;;;;;;;31.53;62.52;100933.63;5003055;28;66225;-42
2022/11/07 05:48:12;;;;;;;13.60;12.45;;;;;;;31.57;61.95;100940.25;5004514;28;69561;-40
2022/11/07 05:50:43;;;;;;;13.73;12.60;;;;;;;31.55;62.43;100926.91;4984240;28;65930;-40
2022/11/07 05:53:14;;;;;;;16.13;12.63;;;;;;;31.56;62.35;100923.16;5003928;28;70586;-39
2022/11/07 05:55:47;;;;;;;15.15;13.80;;;;;;;31.50;62.07;100907.78;5001627;28;65893;-41
2022/11/07 05:58:19;;;;;;;13.48;12.48;;;;;;;31.29;62.09;100862.13;5000914;28;70615;-41
2022/11/07 06:00:50;;;;;;;14.13;12.95;;;;;;;31.60;62.42;100916.22;5007391;28;67000;-39
2022/11/07 06:03:21;;;;;;;13.80;12.35;;;;;;;31.61;62.16;100909.75;4995877;28;69481;-39
2022/11/07 06:05:52;;;;;;;14.45;13.38;;;;;;;31.61;62.20;100893.47;5005909;28;65608;-40
2022/11/07 06:08:23;;;;;;;13.93;12.80;;;;;;;31.43;61.96;100857.41;5005044;28;70850;-39
2022/11/07 06:10:54;;;;;;;14.25;12.88;;;;;;;31.53;62.13;100865.84;5005967;28;66354;-41
2022/11/07 06:13:25;;;;;;;16.45;13.10;;;;;;;31.43;61.98;100852.00;5005888;28;70179;-39
2022/11/07 06:15:57;;;;;;;13.80;12.75;;;;;;;31.51;62.41;100868.78;4995276;28;66683;-39
2022/11/07 06:18:28;;;;;;;14.00;12.93;;;;;;;31.65;62.32;100882.19;4986925;28;68331;-43
2022/11/07 06:21:03;;;;;;;12.82;12.00;;;;;;;31.64;61.96;100877.81;5005560;28;65927;-41
2022/11/07 06:23:34;;;;;;;13.18;12.18;;;;;;;31.59;62.22;100873.06;5006443;28;70508;-40
2022/11/07 06:26:05;;;;;;;13.27;12.13;;;;;;;31.42;62.33;100834.06;5004296;28;66546;-40
2022/11/07 06:28:36;;;;;;;13.25;12.25;;;;;;;31.67;62.12;100874.66;4998990;28;70501;-40
2022/11/07 06:31:07;;;;;;;16.73;12.33;;;;;;;31.68;62.21;100854.59;5001199;28;66184;-39
2022/11/07 06:33:38;;;;;;;13.63;12.07;;;;;;;31.66;62.17;100852.13;5003094;28;69627;-39
2022/11/07 06:36:11;;;;;;;14.95;13.00;;;;;;;31.54;62.02;100824.97;4995288;28;65576;-39
2022/11/07 06:38:42;;;;;;;13.65;12.55;;;;;;;31.64;62.38;100831.72;5006264;28;70345;-42
2022/11/07 06:41:14;;;;;;;15.32;12.75;;;;;;;31.74;62.19;100851.84;5002002;28;66233;-39
2022/11/07 06:43:44;;;;;;;;;;;;;;;31.42;62.80;100845.72;5013474;28;69617;-40
2022/11/07 06:46:18;;;;;;;12.63;11.60;;;;;;;31.68;62.46;100835.63;4997861;28;66047;-38
2022/11/07 06:48:49;;;;;;;12.85;11.85;;;;;;;31.71;62.53;100837.91;4991482;28;70505;-40
2022/11/07 06:51:20;;;;;;;14.23;11.80;;;;;;;31.71;62.62;100833.31;4998786;28;65479;-40
2022/11/07 06:53:53;;;;;;;14.82;13.15;;;;;;;31.74;62.54;100832.03;4993127;28;70015;-40
2022/11/07 06:56:24;;;;;;;18.67;12.13;;;;;;;31.74;62.56;100837.44;4999566;28;65403;-40
2022/11/07 06:58:55;;;;;;;16.87;12.37;;;;;;;31.73;62.24;100839.34;5000557;28;69059;-40
2022/11/07 07:01:26;;;;;;;15.10;12.60;;;;;;;31.73;62.39;100846.63;4999258;28;65352;-41
2022/11/07 07:03:59;;;;;;;13.35;11.90;;;;;;;31.61;62.50;100822.16;4998694;28;69151;-39
2022/11/07 07:06:30;;;;;;;17.10;12.10;;;;;;;31.63;62.05;100830.06;4983169;28;65118;-40
2022/11/07 07:09:05;;;;;;;17.40;12.32;;;;;;;31.73;62.61;100852.03;4997902;28;70535;-41
2022/11/07 07:11:37;;;;;;;16.25;12.23;;;;;;;31.74;62.68;100842.88;4988353;28;66692;-39
2022/11/07 07:14:08;;;;;;;18.67;12.18;;;;;;;31.72;62.38;100848.50;4999651;28;69604;-39
2022/11/07 07:16:40;;;;;;;15.15;12.60;;;;;;;31.73;62.25;100843.91;5001007;28;66779;-40
2022/11/07 07:19:12;;;;;;;14.87;11.40;;;;;;;31.72;62.13;100834.13;5005130;28;68492;-39
2022/11/07 07:21:43;;;;;;;17.10;12.63;;;;;;;31.73;62.43;100823.06;4998211;28;64554;-40
2022/11/07 07:24:14;;;;;;;14.10;11.57;;;;;;;31.71;62.34;100827.88;5001845;28;70541;-39
2022/11/07 07:26:45;;;;;;;15.73;12.13;;;;;;;31.73;62.34;100831.22;4997416;28;66442;-39
2022/11/07 07:29:16;;;;;;;14.07;11.98;;;;;;;31.65;62.04;100808.97;5011760;28;69835;-40
2022/11/07 07:31:47;;;;;;;13.93;12.45;;;;;;;31.69;62.52;100812.88;5001031;28;66124;-40
2022/11/07 07:34:18;;;;;;;14.13;12.37;;;;;;;31.72;62.46;100817.84;5000672;28;70057;-40
2022/11/07 07:36:52;;;;;;;13.02;11.90;;;;;;;31.71;62.56;100810.78;5000655;28;67214;-38
2022/11/07 07:39:24;;;;;;;16.50;12.88;;;;;;;31.72;62.46;100807.00;4997137;28;69562;-42
2022/11/07 07:41:56;;;;;;;13.38;11.77;;;;;;;31.72;62.46;100801.59;5000099;28;65715;-42
2022/11/07 07:44:27;;;;;;;12.80;11.50;;;;;;;31.71;62.54;100795.34;4997255;28;71091;-40
2022/11/07 07:46:59;;;;;;;16.08;12.85;;;;;;;31.69;62.54;100791.19;5010394;28;66155;-39
2022/11/07 07:49:33;;;;;;;13.80;12.00;;;;;;;31.71;62.71;100789.09;5000320;28;70526;-39
2022/11/07 07:52:05;;;;;;;13.70;12.35;;;;;;;31.69;62.60;100785.78;4999526;28;65489;-41
2022/11/07 07:54:36;;;;;;;13.98;12.25;;;;;;;31.43;62.64;100747.09;5000880;28;69549;-40
2022/11/07 07:57:07;;;;;;;14.48;12.85;;;;;;;31.69;62.74;100785.78;4986911;28;67113;-38
2022/11/07 07:59:38;;;;;;;15.03;12.70;;;;;;;31.66;62.76;100780.81;4993495;28;70117;-39
2022/11/07 08:02:11;;;;;;;15.17;11.60;;;;;;;31.58;62.59;100763.78;4993101;28;66472;-41
2022/11/07 08:04:42;;;;;;;13.77;12.05;;;;;;;31.69;62.92;100774.94;4997666;28;70497;-39
2022/11/07 08:07:13;;;;;;;17.67;12.60;;;;;;;31.68;62.84;100767.81;4999707;28;65710;-39
2022/11/07 08:09:44;;;;;;;13.37;12.10;;;;;;;31.68;62.65;100765.13;5000490;28;71633;-40
2022/11/07 08:12:15;;;;;;;13.88;12.48;;;;;;;31.68;62.85;100768.69;5001513;28;66720;-39
2022/11/07 08:14:46;;;;;;;13.13;12.05;;;;;;;31.63;62.92;100754.16;5001124;28;71612;-39
2022/11/07 08:17:17;;;;;;;13.67;12.40;;;;;;;31.67;62.62;100760.75;4998602;28;66196;-39
2022/11/07 08:19:48;;;;;;;14.18;12.88;;;;;;;31.68;62.82;100752.41;4996702;28;68297;-38
2022/11/07 08:22:21;;;;;;;13.52;12.35;;;;;;;31.71;62.93;100751.13;5001298;28;66773;-38
2022/11/07 08:24:51;;;;;;;14.40;12.82;;;;;;;31.71;62.57;100753.84;4999742;28;69408;-39
2022/11/07 08:27:22;;;;;;;14.23;12.83;;;;;;;31.62;62.70;100742.47;5001859;28;66749;-40
2022/11/07 08:29:54;;;;;;;14.00;12.50;;;;;;;31.70;63.07;100752.16;4996304;28;69182;-41
2022/11/07 08:32:27;;;;;;;16.20;11.90;;;;;;;31.71;62.71;100751.13;4997909;28;66622;-41
2022/11/07 08:34:58;;;;;;;13.93;12.68;;;;;;;31.71;63.12;100751.13;4997939;28;69663;-40
2022/11/07 08:37:29;;;;;;;13.88;11.68;;;;;;;31.73;62.81;100760.69;4998519;28;65531;-38
2022/11/07 08:40:00;;;;;;;13.02;11.43;;;;;;;31.75;62.67;100763.16;4994573;28;70713;-39
2022/11/07 08:42:31;;;;;;;15.70;12.70;;;;;;;31.24;62.85;100675.78;4995323;28;65685;-39
2022/11/07 08:45:02;;;;;;;12.53;11.63;;;;;;;31.78;62.81;100762.69;4999285;28;71580;-40
2022/11/07 08:47:34;;;;;;;13.63;12.18;;;;;;;31.78;62.46;100768.13;4999781;28;66636;-39
2022/11/07 08:50:05;;;;;;;14.18;12.02;;;;;;;31.78;62.74;100763.50;4999868;28;70853;-38
2022/11/07 08:52:36;;;;;;;17.85;12.48;;;;;;;31.81;62.32;100764.94;4999668;28;65347;-39
2022/11/07 08:55:07;;;;;;;14.88;12.05;;;;;;;31.85;62.67;100768.88;4991480;28;70627;-39
2022/11/07 08:57:38;;;;;;;14.03;11.93;;;;;;;31.76;62.77;100759.38;4993867;28;65377;-38
2022/11/07 09:00:10;;;;;;;15.27;11.90;;;;;;;31.81;62.64;100764.94;4997382;28;69381;-40
2022/11/07 09:02:41;;;;;;;15.02;13.05;;;;;;;31.75;62.74;100753.13;4992500;28;65417;-39
2022/11/07 09:05:32;;;;;;;17.15;12.20;;;;;;;31.89;62.49;100785.50;4994563;28;70298;-39
2022/11/07 09:08:03;;;;;;;12.88;11.48;;;;;;;31.85;62.60;100785.16;4993592;28;66380;-39
2022/11/07 09:10:34;;;;;;;12.90;11.73;;;;;;;31.64;62.88;100750.38;5000105;28;71050;-39
2022/11/07 09:13:05;;;;;;;15.40;13.18;;;;;;;31.86;62.84;100803.06;4997828;28;66080;-39
2022/11/07 09:15:36;;;;;;;15.57;12.13;;;;;;;31.89;62.94;100802.59;4998643;28;70071;-39
2022/11/07 09:18:07;;;;;;;13.10;12.05;;;;;;;31.78;62.58;100776.25;5000164;28;66044;-38
2022/11/07 09:20:38;;;;;;;14.13;12.77;;;;;;;31.86;62.83;100781.38;4998093;28;68327;-39
2022/11/07 09:23:09;;;;;;;13.30;12.02;;;;;;;31.89;62.74;100786.31;5000322;28;65786;-41
2022/11/07 09:25:41;;;;;;;15.50;12.48;;;;;;;31.82;62.62;100769.34;4996637;28;70437;-38
2022/11/07 09:28:13;;;;;;;12.55;11.55;;;;;;;31.89;62.93;100764.63;4997104;28;66780;-40
2022/11/07 09:30:45;;;;;;;15.15;12.73;;;;;;;31.91;62.31;100769.84;4998163;28;69930;-39
2022/11/07 09:33:17;;;;;;;12.57;11.32;;;;;;;31.89;62.67;100775.47;4998048;28;66131;-38
2022/11/07 09:35:48;;;;;;;15.73;12.63;;;;;;;31.91;63.09;100777.97;4990148;28;68893;-40
2022/11/07 09:38:20;;;;;;;13.60;12.50;;;;;;;31.88;62.59;100781.97;4998777;28;66219;-39
2022/11/07 09:40:56;;;;;;;17.33;12.80;;;;;;;31.88;62.70;100784.69;4998664;28;70750;-41
2022/11/07 09:43:54;;;;;;;17.20;12.27;;;;;;;31.89;62.80;100794.47;4993053;28;66246;-40
2022/11/07 09:46:49;;;;;;;14.20;12.52;;;;;;;31.78;62.97;100798.78;4998295;28;69193;-41
2022/11/07 09:49:45;;;;;;;13.30;12.10;;;;;;;31.31;62.81;100732.59;4995049;28;66849;-39
2022/11/07 09:52:28;;;;;;;14.80;12.27;;;;;;;31.38;62.86;100757.78;4996615;28;69252;-40
2022/11/07 09:55:12;;;;;;;13.48;12.18;;;;;;;31.41;62.77;100767.34;4992904;28;65426;-39
2022/11/07 09:57:45;;;;;;;12.85;11.93;;;;;;;31.87;62.88;100831.84;4994299;28;70563;-41
2022/11/07 10:00:19;;;;;;;14.73;12.95;;;;;;;31.50;62.94;100783.06;4997281;28;65775;-40
2022/11/07 10:02:56;;;;;;;14.52;12.77;;;;;;;31.74;62.75;100853.72;4964937;28;68685;-40
2022/11/07 10:05:58;;;;;;;13.95;12.57;;;;;;;31.80;63.36;100850.09;4995347;28;64405;-42
2022/11/07 10:08:47;;;;;;;14.50;13.02;;;;;;;31.81;63.01;100859.88;4995182;28;70099;-41
2022/11/07 10:11:35;;;;;;;16.23;13.00;;;;;;;31.76;63.23;100867.88;4981533;28;66293;-39
2022/11/07 10:14:27;;;;;;;18.90;12.73;;;;;;;31.86;63.01;100854.59;4997418;28;70743;-41
2022/11/07 10:17:04;;;;;;;;;;;;;;;31.51;63.64;100860.66;4996138;28;66050;-39
2022/11/07 10:19:47;;;;;;;19.40;12.38;;;;;;;31.31;63.23;100789.50;4999701;28;69521;-40
2022/11/07 10:22:30;;;;;;;26.08;14.90;;;;;;;31.64;65.35;100859.66;4999312;28;65294;-42
2022/11/07 10:25:28;;;;;;;29.63;16.08;;;;;;;31.60;66.93;100870.13;4990692;28;69563;-39
2022/11/07 10:28:19;;;;;;;28.20;17.10;;;;;;;31.43;67.84;100879.94;5000527;28;66372;-41
2022/11/07 10:30:51;;;;;;;;;;;;;;;31.19;69.06;100886.16;4999322;28;70609;-40
2022/11/07 10:33:40;;;;;;;24.45;17.70;;;;;;;31.43;68.77;100889.94;4999829;28;67010;-41
2022/11/07 10:36:24;;;;;;;29.67;17.35;;;;;;;31.42;69.20;100905.34;4995430;28;69573;-40
2022/11/07 10:38:56;;;;;;;25.45;16.73;;;;;;;31.49;67.99;100895.28;4991556;28;66020;-40
2022/11/07 10:41:30;;;;;;;23.15;17.17;;;;;;;31.05;67.67;100805.00;5002489;28;70005;-42
2022/11/07 10:44:10;;;;;;;19.85;16.83;;;;;;;31.13;67.38;100806.59;4995050;28;67346;-43
2022/11/07 10:46:44;;;;;;;28.70;18.55;;;;;;;30.91;69.11;100773.69;5001479;28;69667;-44
2022/11/07 10:49:23;;;;;;;23.55;18.98;;;;;;;31.19;69.09;100823.84;5000697;28;66111;-45
2022/11/07 10:52:16;;;;;;;25.10;18.20;;;;;;;31.08;69.10;100809.97;5002058;28;69654;-42
2022/11/07 10:54:47;;;;;;;22.73;17.65;;;;;;;31.64;67.76;100894.09;4995288;28;65616;-43
2022/11/07 10:57:21;;;;;;;25.02;18.58;;;;;;;31.12;67.75;100816.63;4996498;28;70112;-44
2022/11/07 10:59:52;;;;;;;28.50;18.55;;;;;;;31.69;67.60;100921.38;4996729;28;66171;-40
2022/11/07 11:02:29;;;;;;;26.47;18.77;;;;;;;31.67;67.85;100924.28;4999581;28;69380;-44
2022/11/07 11:05:02;;;;;;;22.13;18.58;;;;;;;31.21;67.49;100846.97;4997760;28;66434;-40
2022/11/07 11:07:36;;;;;;;22.73;18.33;;;;;;;31.69;68.08;100937.63;4996698;28;70176;-42
2022/11/07 11:10:20;;;;;;;20.52;18.38;;;;;;;31.23;68.05;100860.28;4996362;28;65747;-40
2022/11/07 11:12:52;;;;;;;22.75;17.98;;;;;;;31.69;67.51;100915.94;4994725;28;70325;-43
2022/11/07 11:15:25;;;;;;;22.17;17.95;;;;;;;31.36;67.96;100873.72;5000523;28;66319;-42
2022/11/07 11:18:06;;;;;;;23.15;18.10;;;;;;;31.28;67.59;100855.84;4998890;28;70236;-42
2022/11/07 11:21:02;;;;;;;21.80;18.67;;;;;;;31.66;68.27;100924.53;5001542;28;66281;-42
2022/11/07 11:23:41;;;;;;;21.73;17.85;;;;;;;31.65;68.00;100922.84;4995403;28;70423;-42
2022/11/07 11:26:21;;;;;;;21.02;17.73;;;;;;;31.47;67.75;100908.22;5001767;28;65895;-42
2022/11/07 11:29:30;;;;;;;19.77;17.73;;;;;;;31.63;67.97;100944.78;5000014;28;69175;-44
2022/11/07 11:32:23;;;;;;;24.25;17.63;;;;;;;31.13;68.04;100869.75;4974269;28;65092;-42
2022/11/07 11:35:18;;;;;;;21.13;17.10;;;;;;;31.51;68.49;100960.97;4996442;28;68845;-42
2022/11/07 11:38:09;;;;;;;21.00;18.40;;;;;;;31.38;68.16;100925.84;5000734;28;65823;-41
2022/11/07 11:40:48;;;;;;;20.98;17.30;;;;;;;31.55;68.10;100956.75;4992916;28;69686;-44
2022/11/07 11:43:25;;;;;;;19.83;17.67;;;;;;;31.59;67.59;100963.41;5012656;28;66004;-42
2022/11/07 11:46:10;;;;;;;20.13;17.10;;;;;;;31.60;67.96;100975.06;4996576;28;69954;-42
2022/11/07 11:48:46;;;;;;;23.88;18.10;;;;;;;31.50;68.02;100980.16;4996146;28;65583;-42
2022/11/07 11:51:31;;;;;;;22.02;16.77;;;;;;;31.22;67.77;100926.38;4995425;28;68487;-41
2022/11/07 11:54:02;;;;;;;21.58;18.15;;;;;;;31.57;67.75;100989.91;5012129;28;65692;-43
2022/11/07 11:56:42;;;;;;;23.48;18.58;;;;;;;31.57;68.28;100986.34;4997892;28;70402;-44
2022/11/07 11:59:25;;;;;;;24.13;18.17;;;;;;;31.57;67.61;100989.06;4998325;28;66432;-42